WEATHER DATA

TODAY
Time Temp. Dewp. Hum. Wind dir Wind speed Wind gust Bar. 1h Prec. 24h Prec.
00:02 16.6 9.3 62 232 0.6 0.8 1020.9 0.0000 0.0000
00:12 16.3 9 62 236 0.8 1.9 1021 0.0000 0.0000
00:22 15.9 8.9 63 233 1.1 1.9 1020.9 0.0000 0.0000
00:32 15.6 8.8 64 238 1.1 2.2 1020.8 0.0000 0.0000
00:42 15.4 8.9 65 235 0.6 1.4 1020.8 0.0000 0.0000
00:52 15.2 8.9 66 238 0.3 1.1 1020.7 0.0000 0.0000
01:02 15.1 8.8 66 237 0.3 0.6 1020.7 0.0000 0.0000
01:12 14.9 8.8 67 235 0.3 0.8 1020.7 0.0000 0.0000
01:23 14.8 8.7 67 225 0.6 1.1 1020.6 0.0000 0.0000
01:32 14.7 8.9 68 233 0.3 0.8 1020.5 0.0000 0.0000
01:42 14.6 8.8 68 225 0.6 0.8 1020.5 0.0000 0.0000
01:53 14.4 8.6 68 230 0.8 1.1 1020.5 0.0000 0.0000
02:03 14 8.4 69 234 1.1 1.9 1020.4 0.0000 0.0000
02:12 13.8 8.2 69 233 1.1 1.9 1020.3 0.0000 0.0000
02:22 13.6 8.2 70 249 0.8 1.4 1020.3 0.0000 0.0000
02:33 13.4 8.3 71 240 0.6 1.1 1020.2 0.0000 0.0000
02:43 13.3 8.2 71 244 0.6 0.8 1020.2 0.0000 0.0000
02:52 13.1 8.2 72 248 0.6 1.1 1020.2 0.0000 0.0000
03:03 13 8.1 72 242 0.6 1.4 1020.2 0.0000 0.0000
03:13 12.9 8.2 73 236 0.6 0.8 1020.2 0.0000 0.0000
03:23 12.7 8 73 245 0.6 1.1 1020.2 0.0000 0.0000
03:33 12.7 8 73 241 0.6 1.1 1020.2 0.0000 0.0000
03:43 12.5 7.8 73 270 0.3 0.8 1020.2 0.0000 0.0000
03:53 12.4 7.9 74 232 0.3 0.8 1020.2 0.0000 0.0000
04:03 12.1 7.6 74 245 0.6 1.1 1020.1 0.0000 0.0000
04:13 11.9 7.6 75 270 0.3 0.8 1020 0.0000 0.0000
04:23 11.8 7.7 76 319 0.6 1.1 1019.9 0.0000 0.0000
04:33 11.5 7.6 77 236 0.6 0.8 1019.7 0.0000 0.0000
04:43 11.3 7.4 77 220 0.3 0.6 1019.6 0.0000 0.0000
04:54 11 7.1 77 225 0.3 0.8 1019.6 0.0000 0.0000
05:03 10.9 7.2 78 225 0.3 0.8 1019.6 0.0000 0.0000
05:13 10.9 7.2 78 225 0.3 0.6 1019.5 0.0000 0.0000
05:24 10.8 7.1 78 233 0.6 1.4 1019.5 0.0000 0.0000
05:34 10.6 6.9 78 229 0.6 0.8 1019.6 0.0000 0.0000
05:43 10.6 7.1 79 229 0.3 1.1 1019.6 0.0000 0.0000
05:53 10.4 6.9 79 238 0.3 0.8 1019.6 0.0000 0.0000
06:04 10.3 6.8 79 236 0.3 1.4 1019.7 0.0000 0.0000
06:14 10.2 6.7 79 304 0.3 0.8 1019.7 0.0000 0.0000
06:24 10.2 6.9 80 270 0.3 0.6 1019.9 0.0000 0.0000
06:34 10 6.5 79 270 0.3 1.4 1019.9 0.0000 0.0000
06:44 9.7 6.4 80 239 0.6 1.1 1020 0.0000 0.0000
06:54 9.7 6.4 80 225 0.3 0.8 1020.1 0.0000 0.0000
07:04 9.6 6.3 80 220 0.6 1.1 1020.1 0.0000 0.0000
07:15 9.5 6.4 81 240 0.6 1.1 1020.2 0.0000 0.0000
07:24 9.6 6.5 81 304 0.3 0.8 1020.2 0.0000 0.0000
07:34 9.7 6.6 81 311 0.3 0.8 1020.2 0.0000 0.0000
07:45 9.6 6.5 81 209 0.6 1.1 1020.4 0.0000 0.0000
07:55 9.2 6.1 81 225 0.6 1.1 1020.5 0.0000 0.0000
08:04 9.1 6 81 217 0.8 1.1 1020.5 0.0000 0.0000
08:14 9 6.1 82 233 0.6 1.4 1020.5 0.0000 0.0000
08:25 8.9 6 82 304 0.3 0.8 1020.6 0.0000 0.0000
08:35 8.7 5.6 81 225 0.3 0.6 1020.7 0.0000 0.0000
08:44 8.7 5.8 82 311 0.3 1.1 1020.7 0.0000 0.0000
08:55 8.8 5.9 82 306 0.6 1.1 1020.8 0.0000 0.0000
09:05 8.7 5.8 82 270 0.3 0.8 1020.9 0.0000 0.0000
09:15 8.8 5.9 82 236 0.3 0.6 1020.9 0.0000 0.0000
09:25 9 6.1 82 225 0.3 0.8 1020.9 0.0000 0.0000
09:35 9.2 6.3 82 212 0.3 0.8 1021 0.0000 0.0000
09:45 9.5 6.6 82 212 0.6 1.1 1021.1 0.0000 0.0000
09:55 9.9 7 82 206 0.6 1.1 1021.4 0.0000 0.0000
10:05 10.3 7.4 82 209 0.6 1.1 1021.4 0.0000 0.0000
10:15 10.7 7.6 81 225 0.6 1.1 1021.4 0.0000 0.0000
10:25 11.2 8.1 81 219 0.8 1.4 1021.6 0.0000 0.0000
10:35 11.7 8.4 80 210 0.6 1.4 1021.6 0.0000 0.0000
10:46 12.5 9.1 80 225 0.6 1.4 1021.6 0.0000 0.0000
10:55 13.4 9.8 79 231 0.6 1.4 1021.6 0.0000 0.0000
11:05 14.3 10.5 78 135 0.3 0.8 1021.6 0.0000 0.0000
11:16 14.8 10.4 75 321 0.6 1.1 1021.6 0.0000 0.0000
11:26 15.1 10.7 75 135 0.3 0.8 1021.7 0.0000 0.0000
11:35 15.6 10.6 72 319 0.6 1.1 1021.6 0.0000 0.0000
11:46 16.3 11 71 315 0.6 1.1 1021.6 0.0000 0.0000
11:56 17.2 11.2 68 146 0.3 0.8 1021.6 0.0000 0.0000
12:06 18 11.3 65 311 0.3 1.1 1021.5 0.0000 0.0000
12:15 18.6 11.7 64 153 0.3 1.1 1021.4 0.0000 0.0000
12:26 19.3 11.6 61 308 0.3 0.8 1021.2 0.0000 0.0000
12:36 20 12.3 61 225 0.3 1.1 1021.1 0.0000 0.0000
12:46 20.7 12.1 58 135 0.3 1.4 1021.1 0.0000 0.0000
12:56 21.3 12.4 57 270 0.3 1.1 1021 0.0000 0.0000
13:06 21.8 12.4 55 295 0.6 1.7 1020.9 0.0000 0.0000
13:16 22.4 12.6 54 168 0.3 1.1 1020.9 0.0000 0.0000
13:26 23.2 12.8 52 257 0.8 2.2 1020.8 0.0000 0.0000
13:37 24 12.3 48 230 1.7 3.6 1020.7 0.0000 0.0000
13:46 24.3 12 46 226 1.7 4.2 1020.6 0.0000 0.0000
13:56 24.8 10.7 41 239 2.5 4.2 1020.5 0.0000 0.0000
14:07 25.3 10.7 40 233 1.9 4.7 1020.4 0.0000 0.0000
14:17 25.6 11 40 229 1.9 5 1020.3 0.0000 0.0000
14:26 26 11 39 192 0.8 2.8 1020.1 0.0000 0.0000
14:36 26.2 11.9 41 225 0.6 1.9 1020 0.0000 0.0000
14:47 26.2 11.5 40 308 0.8 1.7 1019.9 0.0000 0.0000
14:56 26.4 9.7 35 232 1.7 4.2 1019.7 0.0000 0.0000
15:06 26.9 8.8 32 207 2.2 4.2 1019.6 0.0000 0.0000
15:17 27.3 9.2 32 225 1.9 3.6 1019.5 0.0000 0.0000
15:27 27.9 9.2 31 0.6 1.9 1019.4 0.0000 0.0000
15:37 27.8 11 35 108 0.6 1.7 1019.4 0.0000 0.0000
15:46 27.8 11 35 90 0.6 1.7 1019.4 0.0000 0.0000
15:57 27.8 10.1 33 270 0.6 1.4 1019.4 0.0000 0.0000

DAY STATISTIC

2022-10-05
TEMPERATURE
AVERAGE
15.0
HIGH
27.9
15:27
LOW
8.7
08:35
PRESSURE
AVERAGE
1020.5
HIGH
1021.7
11:26
LOW
1019.4
15:27
DEWPOINT
AVERAGE
8.6
HIGH
12.8
13:26
LOW
5.6
08:35
HUMIDITY
AVERAGE
68
HIGH
82
08:14
LOW
31
15:27
WIND SPEED
AVERAGE
0.6
HIGH
2.5
13:56
WIND GUST
AVERAGE
1.4
HIGH
5.0
14:17
WIND DIRECTION
PREVAILING
SW
64.6%
N
0.0
NE
0.0
E
2.1
SE
5.2
S
2.1
SW
64.6
W
10.4
NW
14.6
PRECIPITATION
RAIN HOUR
0.0
RAIN DAY
0.0
TEMPERATURE (°C)
LOW
8.7
HIGH
27.9
AVERAGE
15.0
PRESSURE (hpa)
LOW
1019.4
HIGH
1021.7
AVERAGE
1020.5
DEVICE